createdAt,value
2019-05-15T00:00:13.649Z,102965.74
2019-05-15T00:02:42.147Z,102957.04
2019-05-15T00:05:10.863Z,102958.21
2019-05-15T00:07:40.562Z,102960.74
2019-05-15T00:10:09.732Z,102963.48
2019-05-15T00:12:39.442Z,102960.58
2019-05-15T00:15:09.261Z,102960.42
2019-05-15T00:17:39.355Z,102957.98
2019-05-15T00:20:10.030Z,102956.50
2019-05-15T00:22:39.267Z,102953.69
2019-05-15T00:25:09.301Z,102948.97
2019-05-15T00:27:38.812Z,102952.58
2019-05-15T00:30:10.822Z,102944.83
2019-05-15T00:32:39.617Z,102942.17
2019-05-15T00:35:09.419Z,102938.78
2019-05-15T00:37:38.862Z,102945.16
2019-05-15T00:40:08.973Z,102937.33
2019-05-15T00:42:38.476Z,102934.31
2019-05-15T00:45:09.466Z,102942.93
2019-05-15T00:47:39.653Z,102946.66
2019-05-15T00:50:09.517Z,102939.00
2019-05-15T00:52:39.234Z,102940.08
2019-05-15T00:55:09.074Z,102933.08
2019-05-15T00:57:39.145Z,102935.85
2019-05-15T01:00:09.058Z,102937.38
2019-05-15T01:02:38.886Z,102929.73
2019-05-15T01:05:08.387Z,102932.96
2019-05-15T01:07:38.911Z,102931.26
2019-05-15T01:10:09.804Z,102932.54
2019-05-15T01:12:38.639Z,102930.97
2019-05-15T01:15:10.854Z,102934.77
2019-05-15T01:17:39.587Z,102934.98
2019-05-15T01:20:08.772Z,102929.88
2019-05-15T01:22:39.428Z,102934.44
2019-05-15T01:25:08.719Z,102931.05
2019-05-15T01:27:38.647Z,102936.55
2019-05-15T01:30:09.054Z,102931.83
2019-05-15T01:32:39.565Z,102934.59
2019-05-15T01:35:09.446Z,102928.17
2019-05-15T01:37:39.301Z,102935.26
2019-05-15T01:40:08.997Z,102932.81
2019-05-15T01:42:38.574Z,102931.34
2019-05-15T01:45:08.770Z,102934.20
2019-05-15T01:47:38.968Z,102927.41
2019-05-15T01:50:09.518Z,102924.93
2019-05-15T01:52:39.033Z,102923.23
2019-05-15T01:55:09.229Z,102929.48
2019-05-15T01:57:38.720Z,102923.43
2019-05-15T02:00:09.497Z,102920.53
2019-05-15T02:02:38.911Z,102917.79
2019-05-15T02:05:09.027Z,102918.19
2019-05-15T02:07:39.079Z,102916.73
2019-05-15T02:10:09.138Z,102917.50
2019-05-15T02:12:38.760Z,102915.63
2019-05-15T02:15:08.734Z,102915.08
2019-05-15T02:17:39.324Z,102917.91
2019-05-15T02:20:08.722Z,102912.07
2019-05-15T02:22:41.958Z,102907.84
2019-05-15T02:25:08.699Z,102910.57
2019-05-15T02:27:39.188Z,102908.49
2019-05-15T02:30:22.276Z,102906.08
2019-05-15T02:32:39.689Z,102908.43
2019-05-15T02:35:09.875Z,102902.02
2019-05-15T02:37:41.081Z,102904.39
2019-05-15T02:40:10.638Z,102909.13
2019-05-15T02:42:40.272Z,102899.31
2019-05-15T02:45:10.472Z,102904.53
2019-05-15T02:47:39.994Z,102907.08
2019-05-15T02:50:11.110Z,102903.41
2019-05-15T02:52:44.717Z,102904.92
2019-05-15T02:55:10.484Z,102901.64
2019-05-15T02:57:39.564Z,102899.56
2019-05-15T03:00:10.856Z,102894.47
2019-05-15T03:02:41.303Z,102898.81
2019-05-15T03:05:10.468Z,102892.20
2019-05-15T03:07:40.137Z,102886.91
2019-05-15T03:10:10.460Z,102887.48
2019-05-15T03:12:40.726Z,102888.42
2019-05-15T03:15:10.634Z,102882.77
2019-05-15T03:17:40.761Z,102885.03
2019-05-15T03:20:11.281Z,102888.61
2019-05-15T03:22:40.773Z,102893.07
2019-05-15T03:25:10.909Z,102889.19
2019-05-15T03:27:40.431Z,102892.77
2019-05-15T03:30:13.152Z,102893.72
2019-05-15T03:32:52.496Z,102894.28
2019-05-15T03:35:14.108Z,102894.28
2019-05-15T03:37:40.684Z,102893.53
2019-05-15T03:40:10.533Z,102888.73
2019-05-15T03:42:40.084Z,102885.70
2019-05-15T03:45:10.397Z,102884.84
2019-05-15T03:47:40.177Z,102884.39
2019-05-15T03:50:10.946Z,102886.55
2019-05-15T03:52:39.990Z,102884.02
2019-05-15T03:55:10.846Z,102888.43
2019-05-15T03:57:40.285Z,102889.67
2019-05-15T04:00:10.394Z,102889.19
2019-05-15T04:02:39.616Z,102889.67
2019-05-15T04:05:11.774Z,102893.53
2019-05-15T04:07:40.354Z,102889.00
2019-05-15T04:10:10.100Z,102889.75
2019-05-15T04:12:40.727Z,102886.54
2019-05-15T04:15:10.700Z,102887.78
2019-05-15T04:17:40.341Z,102890.31
2019-05-15T04:20:10.323Z,102888.80
2019-05-15T04:22:40.217Z,102892.09
2019-05-15T04:25:10.325Z,102891.81
2019-05-15T04:27:41.066Z,102887.66
2019-05-15T04:30:11.187Z,102881.31
2019-05-15T04:32:40.634Z,102882.70
2019-05-15T04:35:09.818Z,102884.13
2019-05-15T04:37:40.707Z,102879.66
2019-05-15T04:40:09.597Z,102881.41
2019-05-15T04:42:39.831Z,102887.93
2019-05-15T04:45:10.214Z,102881.64
2019-05-15T04:47:39.829Z,102885.01
2019-05-15T04:50:09.633Z,102883.91
2019-05-15T04:52:42.516Z,102878.48
2019-05-15T04:55:10.212Z,102870.87
2019-05-15T04:57:40.009Z,102876.34
2019-05-15T05:00:10.257Z,102872.49
2019-05-15T05:02:39.859Z,102871.38
2019-05-15T05:05:10.807Z,102872.54
2019-05-15T05:07:39.943Z,102878.54
2019-05-15T05:10:10.086Z,102875.59
2019-05-15T05:12:41.581Z,102874.37
2019-05-15T05:15:09.555Z,102865.30
2019-05-15T05:17:39.118Z,102873.34
2019-05-15T05:20:08.575Z,102867.86
2019-05-15T05:22:39.338Z,102865.97
2019-05-15T05:25:08.315Z,102871.70
2019-05-15T05:27:38.420Z,102874.63
2019-05-15T05:30:08.717Z,102865.49
2019-05-15T05:32:39.002Z,102864.69
2019-05-15T05:35:09.519Z,102872.80
2019-05-15T05:37:38.887Z,102863.28
2019-05-15T05:40:08.558Z,102871.77
2019-05-15T05:42:39.024Z,102868.17
2019-05-15T05:45:09.402Z,102863.25
2019-05-15T05:47:38.292Z,102865.36
2019-05-15T05:50:08.031Z,102867.16
2019-05-15T05:52:38.904Z,102866.84
2019-05-15T05:55:08.788Z,102862.63
2019-05-15T05:57:38.205Z,102869.41
2019-05-15T06:00:09.331Z,102869.88
2019-05-15T06:02:46.829Z,102869.80
2019-05-15T06:05:08.504Z,102874.06
2019-05-15T06:07:38.648Z,102874.11
2019-05-15T06:10:08.889Z,102868.80
2019-05-15T06:12:39.017Z,102863.87
2019-05-15T06:15:08.958Z,102864.64
2019-05-15T06:17:39.176Z,102860.06
2019-05-15T06:20:08.284Z,102856.22
2019-05-15T06:22:38.781Z,102863.33
2019-05-15T06:25:11.359Z,102858.13
2019-05-15T06:27:39.116Z,102859.54
2019-05-15T06:30:08.925Z,102870.05
2019-05-15T06:32:39.812Z,102863.20
2019-05-15T06:35:08.965Z,102862.53
2019-05-15T06:37:39.656Z,102867.43
2019-05-15T06:40:08.623Z,102872.82
2019-05-15T06:42:39.508Z,102871.30
2019-05-15T06:45:08.216Z,102869.61
2019-05-15T06:47:39.193Z,102869.80
2019-05-15T06:50:10.320Z,102864.13
2019-05-15T06:52:38.900Z,102867.86
2019-05-15T06:55:09.348Z,102864.66
2019-05-15T06:57:39.786Z,102862.39
2019-05-15T07:00:08.972Z,102859.83
2019-05-15T07:02:38.203Z,102860.78
2019-05-15T07:05:08.202Z,102855.77
2019-05-15T07:07:38.701Z,102862.64
2019-05-15T07:10:09.010Z,102857.36
2019-05-15T07:12:39.095Z,102860.66
2019-05-15T07:15:09.448Z,102861.54
2019-05-15T07:17:39.194Z,102864.05
2019-05-15T07:20:09.114Z,102853.06
2019-05-15T07:22:39.166Z,102854.10
2019-05-15T07:25:09.022Z,102849.90
2019-05-15T07:27:38.963Z,102849.04
2019-05-15T07:30:12.160Z,102836.69
2019-05-15T07:32:40.428Z,102844.48
2019-05-15T07:35:09.955Z,102839.52
2019-05-15T07:37:38.985Z,102839.28
2019-05-15T07:40:09.646Z,102840.02
2019-05-15T07:42:38.877Z,102838.44
2019-05-15T07:45:09.024Z,102826.77
2019-05-15T07:47:38.701Z,102830.02
2019-05-15T07:50:10.717Z,102835.98
2019-05-15T07:52:40.798Z,102826.61
2019-05-15T07:55:10.061Z,102826.70
2019-05-15T07:57:39.616Z,102824.48
2019-05-15T08:00:10.825Z,102827.07
2019-05-15T08:02:39.446Z,102820.92
2019-05-15T08:05:09.993Z,102822.51
2019-05-15T08:07:39.138Z,102818.10
2019-05-15T08:10:08.909Z,102821.33
2019-05-15T08:12:39.146Z,102824.05
2019-05-15T08:15:10.591Z,102820.91
2019-05-15T08:17:58.552Z,102817.31
2019-05-15T08:20:11.729Z,102805.61
2019-05-15T08:22:40.191Z,102804.69
2019-05-15T08:25:13.096Z,102808.41
2019-05-15T08:27:39.853Z,102804.75
2019-05-15T08:30:11.089Z,102800.77
2019-05-15T08:32:39.643Z,102786.01
2019-05-15T08:35:12.648Z,102792.39
2019-05-15T08:37:40.640Z,102788.05
2019-05-15T08:40:09.944Z,102788.03
2019-05-15T08:42:41.627Z,102781.00
2019-05-15T08:45:09.937Z,102777.49
2019-05-15T08:47:38.714Z,102780.02
2019-05-15T08:50:09.857Z,102780.70
2019-05-15T08:52:39.380Z,102780.36
2019-05-15T08:55:09.054Z,102775.37
2019-05-15T08:57:38.396Z,102780.39
2019-05-15T09:00:09.689Z,102771.16
2019-05-15T09:02:38.419Z,102763.73
2019-05-15T09:05:08.734Z,102758.34
2019-05-15T09:07:38.410Z,102757.80
2019-05-15T09:10:09.883Z,102754.08
2019-05-15T09:12:39.154Z,102752.66
2019-05-15T09:15:10.472Z,102744.87
2019-05-15T09:17:39.857Z,102741.53
2019-05-15T09:20:12.687Z,102741.86
2019-05-15T09:22:41.136Z,102737.47
2019-05-15T09:25:10.643Z,102733.36
2019-05-15T09:27:39.080Z,102737.56
2019-05-15T09:30:09.857Z,102735.37
2019-05-15T09:32:39.409Z,102728.37
2019-05-15T09:35:09.169Z,102736.52
2019-05-15T09:37:38.752Z,102733.20
2019-05-15T09:40:08.789Z,102724.45
2019-05-15T09:42:38.794Z,102723.37
2019-05-15T09:45:09.093Z,102714.18
2019-05-15T09:47:39.514Z,102715.10
2019-05-15T09:50:09.982Z,102710.25
2019-05-15T09:52:39.186Z,102708.11
2019-05-15T09:55:09.820Z,102703.43
2019-05-15T09:57:38.962Z,102700.73
2019-05-15T10:00:10.170Z,102700.33
2019-05-15T10:02:39.565Z,102693.91
2019-05-15T10:05:11.706Z,102693.18
2019-05-15T10:07:40.335Z,102683.41
2019-05-15T10:10:09.912Z,102691.02
2019-05-15T10:12:38.901Z,102684.70
2019-05-15T10:15:11.413Z,102686.84
2019-05-15T10:17:38.736Z,102687.43
2019-05-15T10:20:09.220Z,102689.28
2019-05-15T10:22:37.802Z,102686.38
2019-05-15T10:25:08.352Z,102684.60
2019-05-15T10:27:39.865Z,102675.95
2019-05-15T10:30:10.491Z,102665.75
2019-05-15T10:32:41.597Z,102653.37
2019-05-15T10:35:24.477Z,102651.83
2019-05-15T10:37:44.265Z,102650.00
2019-05-15T10:40:13.269Z,102642.39
2019-05-15T10:42:41.807Z,102639.31
2019-05-15T10:45:12.305Z,102644.00
2019-05-15T10:47:40.794Z,102633.23
2019-05-15T10:50:10.343Z,102630.14
2019-05-15T10:52:39.160Z,102631.98
2019-05-15T10:55:09.733Z,102636.00
2019-05-15T10:57:42.923Z,102627.75
2019-05-15T11:00:09.506Z,102630.77
2019-05-15T11:02:39.389Z,102630.31
2019-05-15T11:05:09.931Z,102622.58
2019-05-15T11:07:39.396Z,102620.42
2019-05-15T11:10:08.945Z,102624.64
2019-05-15T11:12:37.867Z,102620.02
2019-05-15T11:15:11.027Z,102617.89
2019-05-15T11:17:38.766Z,102613.56
2019-05-15T11:20:08.440Z,102616.58
2019-05-15T11:22:42.214Z,102613.97
2019-05-15T11:25:09.967Z,102608.11
2019-05-15T11:27:39.235Z,102605.09
2019-05-15T11:30:09.467Z,102598.15
2019-05-15T11:32:39.090Z,102597.19
2019-05-15T11:35:09.352Z,102588.70
2019-05-15T11:37:45.298Z,102592.45
2019-05-15T11:40:10.735Z,102589.57
2019-05-15T11:42:39.771Z,102591.57
2019-05-15T11:45:09.655Z,102589.39
2019-05-15T11:47:40.003Z,102586.42
2019-05-15T11:50:10.049Z,102586.14
2019-05-15T11:52:40.473Z,102593.47
2019-05-15T11:55:10.770Z,102580.94
2019-05-15T11:57:46.814Z,102584.09
2019-05-15T12:00:17.144Z,102581.78
2019-05-15T12:02:41.600Z,102580.53
2019-05-15T12:05:11.599Z,102578.98
2019-05-15T12:07:40.210Z,102569.88
2019-05-15T12:10:10.338Z,102554.94
2019-05-15T12:12:39.574Z,102556.06
2019-05-15T12:15:09.356Z,102561.54
2019-05-15T12:17:39.136Z,102554.42
2019-05-15T12:20:10.734Z,102562.06
2019-05-15T12:22:39.256Z,102555.05
2019-05-15T12:25:10.175Z,102556.41
2019-05-15T12:27:40.209Z,102557.91
2019-05-15T14:47:58.133Z,102555.09
2019-05-15T14:50:28.391Z,102555.09
2019-05-15T14:52:58.546Z,102488.18
2019-05-15T14:55:33.730Z,102478.88
2019-05-15T14:57:58.809Z,102491.73
2019-05-15T15:00:30.084Z,102488.23
2019-05-15T15:02:58.849Z,102481.23
2019-05-15T18:06:48.391Z,102479.11
2019-05-15T18:09:18.657Z,102479.11
2019-05-15T18:11:47.711Z,102434.59
2019-05-15T18:14:16.369Z,102442.67
2019-05-15T18:16:48.086Z,102436.64
2019-05-15T18:19:15.659Z,102431.47
2019-05-15T18:21:44.515Z,102435.83
2019-05-15T18:24:13.120Z,102432.33
2019-05-15T18:26:41.852Z,102434.19
2019-05-15T18:29:10.327Z,102431.69
2019-05-15T18:31:38.831Z,102425.76
2019-05-15T18:34:08.213Z,102430.30
2019-05-15T18:36:39.199Z,102426.59
2019-05-15T18:39:08.466Z,102439.00
2019-05-15T18:41:37.801Z,102435.83
2019-05-15T18:44:06.660Z,102439.69
2019-05-15T18:46:40.489Z,102432.65
2019-05-15T18:49:10.954Z,102433.66
2019-05-15T18:51:39.729Z,102438.81
2019-05-15T18:54:08.258Z,102439.66
2019-05-15T18:56:38.609Z,102444.31
2019-05-15T18:59:08.529Z,102445.33
2019-05-15T19:01:39.304Z,102449.98
2019-05-15T19:04:08.741Z,102443.58
2019-05-15T19:06:38.316Z,102447.08
2019-05-15T19:09:08.573Z,102448.06
2019-05-15T19:11:38.439Z,102454.08
2019-05-15T19:14:08.319Z,102455.92
2019-05-15T19:16:38.751Z,102455.22
2019-05-15T19:19:07.758Z,102450.16
2019-05-15T19:21:38.240Z,102452.12
2019-05-15T19:24:07.710Z,102446.41
2019-05-15T19:26:36.299Z,102451.88
2019-05-15T19:29:04.924Z,102456.38
2019-05-15T19:31:33.371Z,102463.05
2019-05-15T19:34:01.777Z,102455.82
2019-05-15T19:36:30.785Z,102467.84
2019-05-15T19:38:59.236Z,102467.81
2019-05-15T19:41:28.858Z,102466.95
2019-05-15T19:43:58.132Z,102466.06
2019-05-15T19:46:28.338Z,102462.36
2019-05-15T19:48:58.173Z,102466.20
2019-05-15T19:51:28.934Z,102467.17
2019-05-15T19:53:58.687Z,102458.76
2019-05-15T19:56:29.004Z,102458.73
2019-05-15T19:58:58.206Z,102457.38
2019-05-15T20:01:28.209Z,102461.70
2019-05-15T20:03:58.624Z,102462.36
2019-05-15T20:06:28.052Z,102468.36
2019-05-15T20:08:58.560Z,102467.67
2019-05-15T20:11:27.912Z,102467.64
2019-05-15T20:13:58.394Z,102461.94
2019-05-15T20:16:28.637Z,102461.25
2019-05-15T20:18:58.300Z,102462.59
2019-05-15T20:21:28.982Z,102464.58
2019-05-15T20:23:58.013Z,102465.91
2019-05-15T20:26:28.683Z,102462.55
2019-05-15T20:28:56.970Z,102454.18
2019-05-15T20:31:28.270Z,102453.19
2019-05-15T20:34:05.529Z,102457.84
2019-05-15T20:36:29.450Z,102452.80
2019-05-15T20:38:58.781Z,102460.48
2019-05-15T20:41:27.522Z,102457.47
2019-05-15T20:43:58.121Z,102454.10
2019-05-15T20:46:28.608Z,102455.12
2019-05-15T20:48:58.110Z,102455.78
2019-05-15T20:51:28.847Z,102452.89
2019-05-15T20:53:57.868Z,102454.40
2019-05-15T20:56:28.205Z,102453.54
2019-05-15T20:58:58.245Z,102450.69
2019-05-15T21:01:28.790Z,102458.02
2019-05-15T21:03:59.447Z,102455.66
2019-05-15T21:06:28.339Z,102453.63
2019-05-15T21:08:58.206Z,102448.23
2019-05-15T21:11:27.187Z,102450.22
2019-05-15T21:13:58.025Z,102450.52
2019-05-15T21:16:27.992Z,102451.16
2019-05-15T21:18:57.784Z,102452.80
2019-05-15T21:21:28.214Z,102442.78
2019-05-15T21:23:57.997Z,102443.43
2019-05-15T21:26:29.119Z,102441.41
2019-05-15T21:28:58.655Z,102443.39
2019-05-15T21:31:27.229Z,102442.31
2019-05-15T21:33:55.927Z,102443.61
2019-05-15T21:36:24.409Z,102439.89
2019-05-15T21:38:52.902Z,102439.55
2019-05-15T21:41:21.866Z,102438.03
2019-05-15T21:43:50.613Z,102440.14
2019-05-15T21:46:19.485Z,102431.78
2019-05-15T21:48:48.838Z,102431.09
2019-05-15T21:51:18.696Z,102436.25
2019-05-15T21:53:47.803Z,102435.56
2019-05-15T21:56:18.588Z,102433.19
2019-05-15T21:58:48.285Z,102433.34
2019-05-15T22:01:19.606Z,102433.48
2019-05-15T22:03:48.335Z,102429.08
2019-05-15T22:06:18.503Z,102427.21
2019-05-15T22:08:46.962Z,102427.34
2019-05-15T22:11:15.389Z,102427.80
2019-05-15T22:13:43.879Z,102420.08
2019-05-15T22:16:12.692Z,102422.06
2019-05-15T22:18:41.424Z,102418.70
2019-05-15T22:21:09.858Z,102419.69
2019-05-15T22:23:38.643Z,102406.63
2019-05-15T22:26:07.083Z,102413.97
2019-05-15T22:28:35.527Z,102417.58
2019-05-15T22:31:04.310Z,102410.16
2019-05-15T22:33:32.749Z,102403.07
2019-05-15T22:36:01.190Z,102400.70
2019-05-15T22:38:29.830Z,102398.31
2019-05-15T22:40:58.255Z,102404.64
2019-05-15T22:43:28.681Z,102397.62
2019-05-15T22:45:58.806Z,102387.45
2019-05-15T22:48:28.719Z,102386.25
2019-05-15T22:50:58.642Z,102378.23
2019-05-15T22:53:28.863Z,102385.42
2019-05-15T22:55:58.785Z,102377.25
2019-05-15T22:58:28.138Z,102368.41
2019-05-15T23:00:59.726Z,102370.58
2019-05-15T23:03:28.179Z,102363.20
2019-05-15T23:05:58.168Z,102364.19
2019-05-15T23:08:28.949Z,102361.17
2019-05-15T23:10:58.728Z,102357.50
2019-05-15T23:13:28.557Z,102356.80
2019-05-15T23:15:58.451Z,102356.94
2019-05-15T23:18:29.931Z,102357.92
2019-05-15T23:20:59.458Z,102354.90
2019-05-15T23:23:28.588Z,102356.40
2019-05-15T23:25:57.836Z,102350.36
2019-05-15T23:28:28.160Z,102352.69
2019-05-15T23:30:57.710Z,102353.97
2019-05-15T23:33:28.265Z,102355.87
2019-05-15T23:35:58.750Z,102351.13
2019-05-15T23:38:27.982Z,102345.73
2019-05-15T23:40:58.763Z,102349.06
2019-05-15T23:43:28.275Z,102350.18
2019-05-15T23:45:58.823Z,102356.38
2019-05-15T23:48:28.436Z,102345.99
2019-05-15T23:50:59.133Z,102346.34
2019-05-15T23:53:28.851Z,102346.97
2019-05-15T23:55:58.775Z,102338.97
2019-05-15T23:58:29.129Z,102341.64
